Station: Cairns Racecourse  

  Atmospheric Gas Attenuation - ITU Rec 676-11   ----------------- dB/100km -----------------
Date Time Temp RH % AH g/m3 Dew Point Wind Direction Speed kph Gust kph Barometer mB Rainfall Since 9am 24GHz 47GHz 76GHz 122GHz 134GHz 241GHz
08/05 12:30 28.5 66 18.45 21.5 22 41 1014.3 0 39.4 37.5 71.3 188.6 206.7 718.2
08/05 12:20 28.8 67 19.04 22.1 20 28 1014.4 0 40.6 38.4 73.7 194.9 214.4 745.3
08/05 12:10 27.8 71 19.1 22.1 17 20 1014.5 0 40.9 39.0 74.9 198.2 218.2 758.3
08/05 12:00 27.8 70 18.83 21.8 17 28 1014.8 0 40.3 38.5 73.7 195.0 214.2 744.5
08/05 11:50 27.6 71 18.89 21.9 15 20 1014.7 0 40.4 38.7 74.2 196.2 215.7 749.5
08/05 11:40 27.4 70 18.42 21.4 19 22 1014.8 0 39.5 37.9 72.2 191.1 209.3 727.3
08/05 11:30 27.3 71 18.58 21.6 20 35 1015.2 0 39.8 38.3 73.1 193.3 212.0 736.7
08/05 11:20 28.3 70 19.35 22.3 15 20 1015.2 0 41.3 39.2 75.6 200.1 220.6 766.6
08/05 11:10 27.4 72 18.95 21.9 15 19 1015.3 0 40.6 38.9 74.7 197.6 217.2 754.9
08/05 11:00 27.8 72 19.37 22.3 20 33 1015.6 0 41.4 39.5 76.2 201.7 222.4 772.9
08/05 10:50 28.4 67 18.63 21.7 26 33 1015.6 0 39.8 37.9 72.3 191.2 209.7 728.9
08/05 10:40 27.6 72 19.16 22.1 15 20 1015.6 0 41.0 39.2 75.5 199.6 219.8 764.0
08/05 10:30 27.2 76 19.78 22.6 7 9 1015.6 0 42.4 40.6 78.7 208.3 230.4 800.7
08/05 10:20 26.6 76 19.13 22 11 15 1015.7 0 41.0 39.6 76.3 201.9 222.4 772.5
08/05 10:10 26.6 77 19.38 22.2 19 24 1015.8 0 41.6 40.1 77.5 205.0 226.2 785.8
08/05 10:00 26.4 77 19.17 22 17 28 1016 0 41.2 39.8 76.7 203.0 223.6 776.9
08/05 09:50 26.3 78 19.31 22.2 15 17 1015.9 0 41.5 40.1 77.5 205.0 226.0 785.3
08/05 09:40 26.3 79 19.56 22.4 13 17 1015.8 0 42.0 40.6 78.7 208.1 229.8 798.5
08/05 09:30 26 78 18.99 21.9 13 24 1015.9 0 40.8 39.7 76.3 201.8 222.0 771.3
08/05 09:20 25.9 79 19.13 22 13 17 1015.8 0 41.1 40.0 77.0 203.8 224.5 779.8
08/05 09:10 25.6 79 18.81 21.7 17 19 1015.6 0 40.5 39.5 75.8 200.6 220.4 765.7
08/05 09:00 25.4 78 18.36 21.3 17 28 1015.6 0 39.5 38.8 73.9 195.5 214.2 743.9
08/05 08:50 25.3 79 18.49 21.4 17 20 1015.4 0 39.8 39.0 74.6 197.4 216.4 751.6
08/05 08:40 25.3 78 18.26 21.2 20 22 1015.3 0 39.3 38.6 73.6 194.5 212.9 739.5
08/05 08:30 25.2 78 18.16 21.1 15 28 1015.3 0 39.1 38.5 73.2 193.5 211.7 735.2
08/05 08:20 25.2 77 17.93 20.9 19 22 1015 0 38.7 38.0 72.1 190.7 208.2 723.0
08/05 08:10 25.1 77 17.82 20.8 20 26 1014.9 0 38.4 37.9 71.7 189.6 206.8 718.1
08/05 08:00 25.1 77 17.82 20.8 15 24 1014.9 0 38.4 37.9 71.7 189.6 206.8 718.1
08/05 07:50 24.9 78 17.85 20.8 19 24 1014.8 0 38.5 38.0 72.0 190.4 207.8 721.6
08/05 07:40 24.8 78 17.75 20.7 15 17 1014.6 0 38.3 37.9 71.6 189.4 206.5 717.2
08/05 07:30 24.9 79 18.08 21 15 22 1014.6 0 39.0 38.4 73.1 193.2 211.2 733.5
08/05 07:20 24.4 79 17.58 20.5 13 15 1014.2 0 38.0 37.7 71.2 188.3 205.0 711.8
08/05 07:10 23.7 82 17.54 20.4 11 13 1014.1 0 38.0 37.9 71.7 189.5 206.3 716.3
08/05 07:00 23.6 82 17.44 20.3 13 19 1014.2 0 37.8 37.8 71.3 188.5 205.1 712.0
08/05 06:50 23.1 84 17.36 20.2 13 15 1014 0 37.7 37.9 71.4 188.7 205.2 712.4
08/05 06:40 23 84 17.26 20.1 11 13 1014 0 37.4 37.7 71.0 187.8 204.0 708.0
08/05 06:30 22.8 85 17.27 20.1 9 15 1014.1 0 37.5 37.8 71.3 188.4 204.7 710.5
08/05 06:20 23.2 83 17.25 20.2 11 13 1014 0 37.4 37.6 70.8 187.1 203.3 705.6
08/05 06:10 23.3 83 17.35 20.2 11 13 1013.7 0 37.6 37.7 71.1 188.1 204.5 709.8
08/05 06:00 23.4 82 17.24 20.2 11 19 1013.8 0 37.4 37.5 70.5 186.5 202.5 703.1
08/05 05:50 23.3 82 17.14 20.1 9 11 1013.6 0 37.2 37.3 70.2 185.5 201.3 698.7
08/05 05:40 23.2 83 17.25 20.2 11 15 1013.5 0 37.4 37.6 70.8 187.1 203.2 705.4
08/05 05:30 23.1 83 17.16 20.1 11 17 1013.6 0 37.2 37.5 70.4 186.2 202.1 701.6
08/05 05:20 22.8 84 17.07 20 11 13 1013.4 0 37.1 37.4 70.3 185.8 201.5 699.5
08/05 05:10 22.7 84 16.97 19.9 13 15 1013.3 0 36.9 37.3 69.9 184.8 200.3 695.1
08/05 05:00 22.6 84 16.87 19.8 11 17 1013.3 0 36.7 37.1 69.5 183.8 199.0 690.8
08/05 04:50 22.4 85 16.88 19.8 7 11 1013.1 0 36.7 37.2 69.8 184.4 199.7 693.0
08/05 04:40 22.5 85 16.98 19.9 11 13 1013 0 36.9 37.4 70.1 185.4 200.9 697.3
08/05 04:30 22.1 86 16.79 19.6 9 13 1013.1 0 36.5 37.2 69.6 184.0 199.1 691.0
08/05 04:20 22.1 86 16.79 19.6 7 9 1013 0 36.5 37.2 69.6 184.0 199.1 691.0
08/05 04:10 22 86 16.69 19.5 6 7 1012.9 0 36.3 37.1 69.2 183.0 197.8 686.5
08/05 04:00 22 86 16.69 19.5 9 15 1013.1 0 36.3 37.1 69.2 183.0 197.8 686.6
08/05 03:50 22.1 86 16.79 19.6 13 15 1013 0 36.5 37.2 69.6 184.0 199.1 691.0
08/05 03:40 21.7 87 16.59 19.4 7 9 1012.9 0 36.1 37.0 69.0 182.5 197.1 684.0
08/05 03:30 21.7 88 16.79 19.6 11 15 1013 0 36.6 37.4 70.0 185.0 200.2 694.6
08/05 03:20 21 94 17.22 20 15 17 1012.9 0 37.6 38.5 72.7 192.1 208.7 724.3
08/05 03:10 19.8 97 16.57 19.3 7 9 1013 0 36.3 37.8 70.7 186.9 201.9 700.3
08/05 03:00 20.1 98 17.03 19.8 7 9 1013.2 0 37.2 38.6 72.6 192.0 208.3 722.7
08/05 02:50 19.4 100 16.68 19.4 0 6 1013.1 0 36.6 38.2 71.6 189.3 204.7 710.2
08/05 02:40 19.5 100 16.78 19.5 4 6 1013.1 0 36.8 38.4 72.0 190.3 206.0 714.7
08/05 02:30 18.9 99 16.04 18.7 0 0 1013.3 0 35.2 37.2 69.0 182.4 196.1 680.0
08/05 02:20 19 99 16.13 18.8 0 0 1013.3 0 35.4 37.3 69.4 183.3 197.2 683.9
08/05 02:10 19.1 98 16.06 18.8 0 0 1013.5 0 35.2 37.2 68.9 182.2 195.9 679.3
08/05 02:00 19.2 98 16.16 18.9 0 0 1013.7 0 35.4 37.3 69.3 183.2 197.2 683.9
08/05 01:50 19.6 98 16.54 19.3 0 0 1013.6 0 36.2 37.9 70.8 187.1 202.0 700.9
08/05 01:40 19.9 98 16.84 19.6 6 9 1013.8 0 36.8 38.3 72.0 190.2 206.0 714.5
08/05 01:30 19.5 96 16.11 18.8 6 7 1013.9 0 35.3 37.1 68.8 181.9 195.7 678.6
08/05 01:20 20.2 96 16.78 19.5 4 6 1013.8 0 36.7 38.1 71.4 188.7 204.2 708.4
08/05 01:10 20.4 96 16.98 19.7 0 6 1013.9 0 37.1 38.4 72.2 190.7 206.8 717.5
08/05 01:00 20.2 95 16.61 19.4 2 7 1013.9 0 36.3 37.7 70.6 186.5 201.5 699.2
08/05 00:50 20.3 95 16.71 19.5 0 0 1013.8 0 36.5 37.9 71.0 187.5 202.8 703.7
08/05 00:40 20.7 94 16.92 19.7 2 7 1014 0 36.9 38.1 71.6 189.2 205.0 711.4
08/05 00:30 21 93 17.03 19.8 2 7 1014.1 0 37.1 38.2 71.8 189.9 205.9 714.6
08/05 00:20 21.1 93 17.13 19.9 6 6 1014 0 37.4 38.3 72.2 190.9 207.2 719.0
08/05 00:10 21.2 91 16.86 19.7 6 6 1014 0 36.8 37.8 70.8 187.2 202.7 703.5
08/05 00:00 21.3 92 17.15 19.9 6 9 1014.2 0 37.4 38.3 72.1 190.7 207.0 718.3
07/05 23:50 21.4 91 17.06 19.9 7 7 1014.2 0 37.2 38.1 71.6 189.3 205.3 712.5
07/05 23:40 21.7 92 17.55 20.3 7 7 1014.2 0 38.2 38.9 73.6 194.7 212.1 736.1
07/05 23:30 21.9 89 17.17 20 6 7 1014.3 0 37.4 38.1 71.7 189.4 205.6 713.7
07/05 23:20 22.4 86 17.08 19.9 0 0 1014.3 0 37.1 37.7 70.8 187.1 202.9 704.2
07/05 23:10 22.7 84 16.97 19.9 4 6 1014.4 0 36.9 37.3 70.0 185.0 200.4 695.7
07/05 23:00 22.8 84 17.07 20 7 11 1014.5 0 37.1 37.5 70.4 186.0 201.7 700.1
07/05 22:50 23 83 17.06 20 9 11 1014.3 0 37.0 37.4 70.1 185.3 201.0 697.6
07/05 22:40 22.9 84 17.17 20.1 9 11 1014.5 0 37.3 37.6 70.7 187.0 202.9 704.4
07/05 22:30 23 84 17.26 20.1 9 15 1014.7 0 37.4 37.8 71.1 187.9 204.1 708.4
07/05 22:20 23 85 17.47 20.3 9 9 1014.7 0 37.9 38.1 72.0 190.5 207.3 719.5
07/05 22:10 22.6 88 17.68 20.5 11 13 1014.7 0 38.4 38.7 73.4 194.1 211.6 734.6
07/05 22:00 21.7 92 17.55 20.3 2 11 1015 0 38.2 38.9 73.7 194.8 212.2 736.5
07/05 21:50 22.2 91 17.86 20.7 0 0 1015 0 38.8 39.3 74.7 197.5 215.6 748.4
07/05 21:40 22.4 92 18.27 21 6 7 1015.1 0 39.7 40.0 76.5 202.2 221.5 768.8
07/05 21:30 22.6 90 18.08 20.9 6 13 1015.3 0 39.2 39.5 75.4 199.3 217.9 756.5
07/05 21:20 22.9 88 17.98 20.8 6 6 1015.1 0 39.0 39.2 74.6 197.2 215.5 748.0
07/05 21:10 23.2 87 18.09 20.9 7 7 1015.2 0 39.2 39.2 74.8 197.8 216.3 751.0
07/05 21:00 23.3 87 18.19 21 9 15 1015.2 0 39.4 39.4 75.2 198.8 217.6 755.4
07/05 20:50 23.3 87 18.19 21 7 9 1015 0 39.4 39.4 75.2 198.8 217.5 755.3
07/05 20:40 23.5 87 18.4 21.2 11 13 1014.9 0 39.8 39.7 76.0 200.9 220.2 764.6
07/05 20:30 23.3 88 18.4 21.2 9 15 1014.9 0 39.8 39.8 76.2 201.4 220.8 766.6
07/05 20:20 23.4 88 18.5 21.3 11 11 1014.7 0 40.1 39.9 76.5 202.4 222.0 770.9
07/05 20:10 23.5 87 18.4 21.2 9 13 1014.7 0 39.8 39.7 76.0 200.9 220.2 764.5
07/05 20:00 24.1 84 18.38 21.2 11 15 1014.7 0 39.7 39.4 75.3 199.0 218.1 757.4

Last Refresh: 08-May-2026 12:06:09

Bureau of Meteorology